sensor_id;sensor_type;location;lat;lon;timestamp;pressure;altitude;pressure_sealevel;temperature
47484;BMP280;54076;50.322;18.650;2022-09-03T00:01:42;99354.61;;;13.86
47484;BMP280;54076;50.322;18.650;2022-09-03T00:06:51;99357.29;;;13.84
47484;BMP280;54076;50.322;18.650;2022-09-03T00:17:30;99353.76;;;13.66
47484;BMP280;54076;50.322;18.650;2022-09-03T00:22:40;99351.58;;;13.66
47484;BMP280;54076;50.322;18.650;2022-09-03T00:27:44;99348.05;;;13.62
47484;BMP280;54076;50.322;18.650;2022-09-03T00:32:58;99347.40;;;13.55
47484;BMP280;54076;50.322;18.650;2022-09-03T00:38:01;99348.66;;;13.48
47484;BMP280;54076;50.322;18.650;2022-09-03T00:54:50;99330.66;;;13.26
47484;BMP280;54076;50.322;18.650;2022-09-03T01:00:17;99325.98;;;13.27
47484;BMP280;54076;50.322;18.650;2022-09-03T01:05:42;99318.55;;;13.25
47484;BMP280;54076;50.322;18.650;2022-09-03T01:11:19;99320.27;;;13.33
47484;BMP280;54076;50.322;18.650;2022-09-03T01:16:43;99334.84;;;13.28
47484;BMP280;54076;50.322;18.650;2022-09-03T01:33:19;99334.20;;;13.09
47484;BMP280;54076;50.322;18.650;2022-09-03T01:39:05;99334.53;;;13.02
47484;BMP280;54076;50.322;18.650;2022-09-03T01:44:56;99338.84;;;12.87
47484;BMP280;54076;50.322;18.650;2022-09-03T02:00:45;99342.64;;;12.65
47484;BMP280;54076;50.322;18.650;2022-09-03T02:05:49;99344.75;;;12.45
47484;BMP280;54076;50.322;18.650;2022-09-03T02:10:54;99347.75;;;12.33
47484;BMP280;54076;50.322;18.650;2022-09-03T02:16:05;99346.88;;;12.36
47484;BMP280;54076;50.322;18.650;2022-09-03T02:21:08;99346.75;;;12.41
47484;BMP280;54076;50.322;18.650;2022-09-03T02:26:12;99344.90;;;12.39
47484;BMP280;54076;50.322;18.650;2022-09-03T02:31:15;99342.08;;;12.36
47484;BMP280;54076;50.322;18.650;2022-09-03T02:36:20;99349.84;;;12.31
47484;BMP280;54076;50.322;18.650;2022-09-03T02:41:25;99353.14;;;12.29
47484;BMP280;54076;50.322;18.650;2022-09-03T02:46:43;99356.91;;;12.20
47484;BMP280;54076;50.322;18.650;2022-09-03T02:51:44;99360.50;;;12.21
47484;BMP280;54076;50.322;18.650;2022-09-03T02:56:45;99357.80;;;12.05
47484;BMP280;54076;50.322;18.650;2022-09-03T03:01:48;99359.88;;;11.99
47484;BMP280;54076;50.322;18.650;2022-09-03T03:06:49;99356.04;;;11.94
47484;BMP280;54076;50.322;18.650;2022-09-03T03:11:51;99357.15;;;11.92
47484;BMP280;54076;50.322;18.650;2022-09-03T03:16:55;99355.77;;;11.88
47484;BMP280;54076;50.322;18.650;2022-09-03T03:21:55;99358.71;;;11.73
47484;BMP280;54076;50.322;18.650;2022-09-03T03:26:57;99361.80;;;11.65
47484;BMP280;54076;50.322;18.650;2022-09-03T03:31:58;99369.23;;;11.66
47484;BMP280;54076;50.322;18.650;2022-09-03T03:36:59;99368.52;;;11.59
47484;BMP280;54076;50.322;18.650;2022-09-03T03:42:00;99363.05;;;11.67
47484;BMP280;54076;50.322;18.650;2022-09-03T03:47:01;99358.82;;;11.65
47484;BMP280;54076;50.322;18.650;2022-09-03T03:52:05;99356.16;;;11.70
47484;BMP280;54076;50.322;18.650;2022-09-03T03:57:06;99360.55;;;11.71
47484;BMP280;54076;50.322;18.650;2022-09-03T04:02:07;99353.68;;;11.70
47484;BMP280;54076;50.322;18.650;2022-09-03T04:07:08;99352.27;;;11.69
47484;BMP280;54076;50.322;18.650;2022-09-03T04:12:09;99353.27;;;11.69
47484;BMP280;54076;50.322;18.650;2022-09-03T04:17:10;99359.95;;;11.72
47484;BMP280;54076;50.322;18.650;2022-09-03T04:22:11;99368.75;;;11.65
47484;BMP280;54076;50.322;18.650;2022-09-03T04:27:14;99366.94;;;11.66
47484;BMP280;54076;50.322;18.650;2022-09-03T04:32:15;99371.30;;;11.73
47484;BMP280;54076;50.322;18.650;2022-09-03T04:37:35;99375.25;;;11.80
47484;BMP280;54076;50.322;18.650;2022-09-03T04:42:36;99376.55;;;11.83
47484;BMP280;54076;50.322;18.650;2022-09-03T04:47:37;99377.80;;;11.87
47484;BMP280;54076;50.322;18.650;2022-09-03T04:52:38;99377.64;;;11.95
47484;BMP280;54076;50.322;18.650;2022-09-03T04:57:39;99384.73;;;11.98
47484;BMP280;54076;50.322;18.650;2022-09-03T05:02:43;99389.45;;;12.22
47484;BMP280;54076;50.322;18.650;2022-09-03T05:07:46;99390.11;;;12.36
47484;BMP280;54076;50.322;18.650;2022-09-03T05:13:01;99375.86;;;12.50
47484;BMP280;54076;50.322;18.650;2022-09-03T05:18:03;99376.79;;;12.70
47484;BMP280;54076;50.322;18.650;2022-09-03T05:23:04;99390.29;;;12.79
47484;BMP280;54076;50.322;18.650;2022-09-03T05:28:05;99398.08;;;13.01
47484;BMP280;54076;50.322;18.650;2022-09-03T05:33:06;99398.58;;;13.19
47484;BMP280;54076;50.322;18.650;2022-09-03T05:38:07;99392.50;;;13.40
47484;BMP280;54076;50.322;18.650;2022-09-03T05:43:09;99389.46;;;13.78
47484;BMP280;54076;50.322;18.650;2022-09-03T05:48:10;99387.83;;;14.02
47484;BMP280;54076;50.322;18.650;2022-09-03T05:53:11;99390.97;;;14.23
47484;BMP280;54076;50.322;18.650;2022-09-03T05:58:12;99391.51;;;14.36
47484;BMP280;54076;50.322;18.650;2022-09-03T06:03:13;99376.84;;;14.99
47484;BMP280;54076;50.322;18.650;2022-09-03T06:08:14;99371.66;;;15.68
47484;BMP280;54076;50.322;18.650;2022-09-03T06:13:14;99372.88;;;16.12
47484;BMP280;54076;50.322;18.650;2022-09-03T06:18:15;99375.38;;;16.04
47484;BMP280;54076;50.322;18.650;2022-09-03T06:23:16;99374.70;;;16.12
47484;BMP280;54076;50.322;18.650;2022-09-03T06:28:17;99372.98;;;16.35
47484;BMP280;54076;50.322;18.650;2022-09-03T06:33:18;99374.05;;;16.22
47484;BMP280;54076;50.322;18.650;2022-09-03T06:38:19;99375.95;;;16.61
47484;BMP280;54076;50.322;18.650;2022-09-03T06:43:22;99372.98;;;16.78
47484;BMP280;54076;50.322;18.650;2022-09-03T06:48:25;99375.77;;;16.93
47484;BMP280;54076;50.322;18.650;2022-09-03T06:53:30;99374.42;;;16.97
47484;BMP280;54076;50.322;18.650;2022-09-03T06:58:35;99381.04;;;16.74
47484;BMP280;54076;50.322;18.650;2022-09-03T07:03:39;99387.04;;;16.68
47484;BMP280;54076;50.322;18.650;2022-09-03T07:08:41;99388.30;;;16.88
47484;BMP280;54076;50.322;18.650;2022-09-03T07:13:49;99385.23;;;16.99
47484;BMP280;54076;50.322;18.650;2022-09-03T07:18:51;99381.79;;;17.07
47484;BMP280;54076;50.322;18.650;2022-09-03T07:23:54;99377.05;;;17.17
47484;BMP280;54076;50.322;18.650;2022-09-03T07:28:56;99372.92;;;17.53
47484;BMP280;54076;50.322;18.650;2022-09-03T07:34:00;99377.54;;;17.57
47484;BMP280;54076;50.322;18.650;2022-09-03T07:39:10;99376.77;;;18.08
47484;BMP280;54076;50.322;18.650;2022-09-03T07:44:13;99376.35;;;18.19
47484;BMP280;54076;50.322;18.650;2022-09-03T07:49:15;99393.41;;;18.12
47484;BMP280;54076;50.322;18.650;2022-09-03T07:54:17;99393.09;;;18.15
47484;BMP280;54076;50.322;18.650;2022-09-03T07:59:21;99381.65;;;18.26
47484;BMP280;54076;50.322;18.650;2022-09-03T08:04:23;99385.06;;;18.26
47484;BMP280;54076;50.322;18.650;2022-09-03T08:09:24;99386.03;;;18.15
47484;BMP280;54076;50.322;18.650;2022-09-03T08:14:25;99388.45;;;18.28
47484;BMP280;54076;50.322;18.650;2022-09-03T08:19:26;99391.44;;;18.04
47484;BMP280;54076;50.322;18.650;2022-09-03T08:24:27;99385.66;;;18.22
47484;BMP280;54076;50.322;18.650;2022-09-03T08:29:28;99390.36;;;18.20
47484;BMP280;54076;50.322;18.650;2022-09-03T08:34:29;99396.85;;;18.29
47484;BMP280;54076;50.322;18.650;2022-09-03T08:39:30;99390.72;;;18.37
47484;BMP280;54076;50.322;18.650;2022-09-03T08:44:45;99392.48;;;18.63
47484;BMP280;54076;50.322;18.650;2022-09-03T08:50:51;99387.67;;;18.65
47484;BMP280;54076;50.322;18.650;2022-09-03T08:55:57;99388.06;;;18.69
47484;BMP280;54076;50.322;18.650;2022-09-03T09:01:25;99382.54;;;18.90
47484;BMP280;54076;50.322;18.650;2022-09-03T09:06:52;99373.80;;;19.22
47484;BMP280;54076;50.322;18.650;2022-09-03T09:22:48;99379.95;;;19.57
47484;BMP280;54076;50.322;18.650;2022-09-03T09:27:59;99375.69;;;19.61
47484;BMP280;54076;50.322;18.650;2022-09-03T09:33:00;99378.95;;;19.43
47484;BMP280;54076;50.322;18.650;2022-09-03T09:38:01;99376.85;;;19.78
47484;BMP280;54076;50.322;18.650;2022-09-03T09:43:12;99369.27;;;20.22
47484;BMP280;54076;50.322;18.650;2022-09-03T09:48:29;99372.00;;;20.70
47484;BMP280;54076;50.322;18.650;2022-09-03T09:53:32;99382.35;;;20.89
47484;BMP280;54076;50.322;18.650;2022-09-03T09:58:35;99385.16;;;20.32
47484;BMP280;54076;50.322;18.650;2022-09-03T10:03:48;99389.62;;;20.28
47484;BMP280;54076;50.322;18.650;2022-09-03T10:09:03;99394.26;;;20.84
47484;BMP280;54076;50.322;18.650;2022-09-03T10:14:33;99391.89;;;20.99
47484;BMP280;54076;50.322;18.650;2022-09-03T10:19:49;99388.83;;;20.98
47484;BMP280;54076;50.322;18.650;2022-09-03T10:25:14;99371.98;;;20.79
47484;BMP280;54076;50.322;18.650;2022-09-03T10:30:17;99378.57;;;20.72
47484;BMP280;54076;50.322;18.650;2022-09-03T10:35:34;99379.34;;;21.04
47484;BMP280;54076;50.322;18.650;2022-09-03T10:40:53;99377.19;;;20.78
47484;BMP280;54076;50.322;18.650;2022-09-03T10:46:04;99383.80;;;21.28
47484;BMP280;54076;50.322;18.650;2022-09-03T10:51:19;99374.52;;;21.77
47484;BMP280;54076;50.322;18.650;2022-09-03T10:56:35;99361.80;;;21.32
47484;BMP280;54076;50.322;18.650;2022-09-03T11:07:27;99357.56;;;21.97
47484;BMP280;54076;50.322;18.650;2022-09-03T11:12:39;99356.10;;;21.94
47484;BMP280;54076;50.322;18.650;2022-09-03T11:17:49;99352.80;;;21.45
47484;BMP280;54076;50.322;18.650;2022-09-03T11:22:56;99356.89;;;21.03
47484;BMP280;54076;50.322;18.650;2022-09-03T11:33:51;99351.92;;;20.83
47484;BMP280;54076;50.322;18.650;2022-09-03T11:38:53;99354.67;;;20.67
47484;BMP280;54076;50.322;18.650;2022-09-03T11:43:54;99341.77;;;20.85
47484;BMP280;54076;50.322;18.650;2022-09-03T11:49:10;99342.20;;;20.73
47484;BMP280;54076;50.322;18.650;2022-09-03T12:04:17;99338.28;;;20.57
47484;BMP280;54076;50.322;18.650;2022-09-03T12:09:42;99342.07;;;20.72
47484;BMP280;54076;50.322;18.650;2022-09-03T12:20:14;99340.46;;;20.49
47484;BMP280;54076;50.322;18.650;2022-09-03T12:25:16;99343.35;;;20.12
47484;BMP280;54076;50.322;18.650;2022-09-03T12:30:22;99343.71;;;19.85
47484;BMP280;54076;50.322;18.650;2022-09-03T12:35:24;99340.21;;;19.97
47484;BMP280;54076;50.322;18.650;2022-09-03T12:40:29;99338.73;;;20.76
47484;BMP280;54076;50.322;18.650;2022-09-03T12:45:30;99331.94;;;20.99
47484;BMP280;54076;50.322;18.650;2022-09-03T12:50:32;99330.07;;;20.90
47484;BMP280;54076;50.322;18.650;2022-09-03T13:00:41;99335.70;;;20.94
47484;BMP280;54076;50.322;18.650;2022-09-03T13:05:48;99334.92;;;20.89
47484;BMP280;54076;50.322;18.650;2022-09-03T13:10:55;99331.50;;;21.07
47484;BMP280;54076;50.322;18.650;2022-09-03T13:16:28;99328.57;;;21.72
47484;BMP280;54076;50.322;18.650;2022-09-03T13:28:02;99318.89;;;22.10
47484;BMP280;54076;50.322;18.650;2022-09-03T13:33:15;99313.27;;;21.96
47484;BMP280;54076;50.322;18.650;2022-09-03T13:38:47;99310.96;;;21.48
47484;BMP280;54076;50.322;18.650;2022-09-03T13:44:15;99313.38;;;21.40
47484;BMP280;54076;50.322;18.650;2022-09-03T13:50:02;99310.84;;;21.37
47484;BMP280;54076;50.322;18.650;2022-09-03T13:55:47;99312.72;;;20.72
47484;BMP280;54076;50.322;18.650;2022-09-03T14:27:42;99303.46;;;20.89
47484;BMP280;54076;50.322;18.650;2022-09-03T14:38:52;99299.44;;;20.77
47484;BMP280;54076;50.322;18.650;2022-09-03T14:44:22;99295.58;;;20.81
47484;BMP280;54076;50.322;18.650;2022-09-03T14:55:56;99286.98;;;20.82
47484;BMP280;54076;50.322;18.650;2022-09-03T15:01:32;99278.70;;;20.83
47484;BMP280;54076;50.322;18.650;2022-09-03T15:33:45;99276.15;;;20.46
47484;BMP280;54076;50.322;18.650;2022-09-03T15:39:04;99280.16;;;20.34
47484;BMP280;54076;50.322;18.650;2022-09-03T15:44:13;99276.90;;;20.41
47484;BMP280;54076;50.322;18.650;2022-09-03T15:49:50;99273.83;;;20.48
47484;BMP280;54076;50.322;18.650;2022-09-03T16:00:12;99279.55;;;20.78
47484;BMP280;54076;50.322;18.650;2022-09-03T16:05:37;99273.28;;;20.74
47484;BMP280;54076;50.322;18.650;2022-09-03T16:11:36;99278.52;;;20.83
47484;BMP280;54076;50.322;18.650;2022-09-03T16:16:26;99285.85;;;20.55
47484;BMP280;54076;50.322;18.650;2022-09-03T16:21:41;99289.30;;;20.35
47484;BMP280;54076;50.322;18.650;2022-09-03T16:27:16;99292.29;;;20.22
47484;BMP280;54076;50.322;18.650;2022-09-03T16:38:51;99285.11;;;19.95
47484;BMP280;54076;50.322;18.650;2022-09-03T17:01:22;99278.92;;;19.12
47484;BMP280;54076;50.322;18.650;2022-09-03T17:12:43;99277.98;;;18.83
47484;BMP280;54076;50.322;18.650;2022-09-03T17:18:13;99281.30;;;18.75
47484;BMP280;54076;50.322;18.650;2022-09-03T17:34:18;99295.55;;;17.83
47484;BMP280;54076;50.322;18.650;2022-09-03T18:17:36;99346.11;;;17.28
47484;BMP280;54076;50.322;18.650;2022-09-03T18:22:49;99344.71;;;17.11
47484;BMP280;54076;50.322;18.650;2022-09-03T18:28:13;99349.11;;;16.88
47484;BMP280;54076;50.322;18.650;2022-09-03T18:33:35;99350.98;;;16.92
47484;BMP280;54076;50.322;18.650;2022-09-03T18:39:15;99345.80;;;16.76
47484;BMP280;54076;50.322;18.650;2022-09-03T18:56:51;99341.30;;;16.70
47484;BMP280;54076;50.322;18.650;2022-09-03T19:02:28;99338.86;;;16.79
47484;BMP280;54076;50.322;18.650;2022-09-03T19:08:08;99337.67;;;16.78
47484;BMP280;54076;50.322;18.650;2022-09-03T19:13:34;99339.83;;;16.81
47484;BMP280;54076;50.322;18.650;2022-09-03T19:19:28;99344.17;;;16.79
47484;BMP280;54076;50.322;18.650;2022-09-03T19:24:59;99343.52;;;16.66
47484;BMP280;54076;50.322;18.650;2022-09-03T19:30:46;99346.13;;;16.50
47484;BMP280;54076;50.322;18.650;2022-09-03T19:48:40;99349.54;;;16.37
47484;BMP280;54076;50.322;18.650;2022-09-03T19:54:05;99351.64;;;16.03
47484;BMP280;54076;50.322;18.650;2022-09-03T19:59:38;99354.35;;;15.93
47484;BMP280;54076;50.322;18.650;2022-09-03T20:05:01;99360.98;;;15.82
47484;BMP280;54076;50.322;18.650;2022-09-03T20:10:26;99367.14;;;15.78
47484;BMP280;54076;50.322;18.650;2022-09-03T20:15:42;99372.67;;;15.74
47484;BMP280;54076;50.322;18.650;2022-09-03T20:21:26;99377.62;;;15.57
47484;BMP280;54076;50.322;18.650;2022-09-03T20:27:08;99378.77;;;15.55
47484;BMP280;54076;50.322;18.650;2022-09-03T20:32:58;99380.08;;;15.55
47484;BMP280;54076;50.322;18.650;2022-09-03T21:10:41;99399.63;;;15.43
47484;BMP280;54076;50.322;18.650;2022-09-03T21:16:01;99393.99;;;15.42
47484;BMP280;54076;50.322;18.650;2022-09-03T21:21:30;99397.54;;;15.36
47484;BMP280;54076;50.322;18.650;2022-09-03T21:26:39;99395.96;;;15.42
47484;BMP280;54076;50.322;18.650;2022-09-03T21:36:55;99388.52;;;15.42
47484;BMP280;54076;50.322;18.650;2022-09-03T21:47:10;99387.33;;;15.39
47484;BMP280;54076;50.322;18.650;2022-09-03T21:53:06;99392.05;;;15.57
47484;BMP280;54076;50.322;18.650;2022-09-03T21:58:26;99394.27;;;15.57
47484;BMP280;54076;50.322;18.650;2022-09-03T22:03:32;99391.55;;;15.57
47484;BMP280;54076;50.322;18.650;2022-09-03T22:08:50;99389.56;;;15.60
47484;BMP280;54076;50.322;18.650;2022-09-03T22:19:05;99396.20;;;15.57
47484;BMP280;54076;50.322;18.650;2022-09-03T22:24:17;99397.78;;;15.59
47484;BMP280;54076;50.322;18.650;2022-09-03T22:29:43;99394.47;;;15.54
47484;BMP280;54076;50.322;18.650;2022-09-03T22:46:04;99396.28;;;15.62
47484;BMP280;54076;50.322;18.650;2022-09-03T22:51:05;99398.15;;;15.70
47484;BMP280;54076;50.322;18.650;2022-09-03T22:56:13;99398.02;;;15.50
47484;BMP280;54076;50.322;18.650;2022-09-03T23:01:28;99403.04;;;15.41
47484;BMP280;54076;50.322;18.650;2022-09-03T23:06:35;99406.67;;;15.32
47484;BMP280;54076;50.322;18.650;2022-09-03T23:11:52;99409.10;;;15.32
47484;BMP280;54076;50.322;18.650;2022-09-03T23:17:03;99403.75;;;15.27
47484;BMP280;54076;50.322;18.650;2022-09-03T23:22:24;99398.80;;;15.25
47484;BMP280;54076;50.322;18.650;2022-09-03T23:28:00;99398.35;;;15.12
47484;BMP280;54076;50.322;18.650;2022-09-03T23:33:02;99392.11;;;15.05
47484;BMP280;54076;50.322;18.650;2022-09-03T23:38:21;99403.48;;;15.02
47484;BMP280;54076;50.322;18.650;2022-09-03T23:49:27;99400.84;;;15.20
47484;BMP280;54076;50.322;18.650;2022-09-03T23:54:48;99394.42;;;15.20
